TFM - Tactical Decision Aid
ID: Runway Winds: CIG/VIS Threshold:

KTPA - Tampa Intl Arpt, FL, US

Updated at: 0226 UTC 12 May 2021
Latest TAF at: 2320 UTC 11 May 2021

TAF Board

Time0153Z 12/03Z 12/04Z 12/05Z 12/06Z 12/07Z 12/08Z 12/09Z 12/10Z 12/11Z 12/12Z 12/13Z 12/14Z 12/15Z>>
Type OBS PRVL PRVL PRVL PRVL PRVL PRVL PRVL PRVL PRVL PRVL PRVL PRVL PRVL
VIS 10 >6 >6 >6 >6 >6 >6 >6 >6 >6 >6 >6 >6 >6
CIG -- -- -- -- -- -- -- -- -- -- -- -- -- --
Cover FEW SCT SCT SCT SCT SCT SCT SCT SCT SCT SCT SCT SCT SCT
FltCat VFR VFR VFR VFR VFR VFR VFR VFR VFR VFR VFR VFR VFR VFR
WX -- -- -- -- -- -- -- -- -- -- -- -- -- --
WDir 340 VRB VRB VRB VRB VRB VRB VRB VRB VRB VRB VRB VRB 240
WSpd 6 3 3 3 3 3 3 3 3 3 3 3 3 7
WGst -- -- -- -- -- -- -- -- -- -- -- -- -- --

TDA Impact Legend

  None Marginal Slight Moderate High
Visibility (sm) >5 3≤X≤5 1≤X<3 0.5≤X<1 <0.5
Ceiling (100 ft) >30 10≤X≤30 4≤X<10 2≤X<4 <2
Wind Speed (kt) <15 15≤X<25 25≤X<30 ≥30
Wind Gust (kt) <15 15≤X<25 25≤X<35 ≥35
Weather No Wx Reported VCTS -TS,-FZRA TS,FZRA +TS,+FZRA
TAF
KTPA 112320Z 1200/1306 30007KT P6SM FEW030 SCT250
  FM120200 VRB03KT P6SM SCT250
  FM121500 24007KT P6SM FEW030 SCT250
  FM121900 28009KT P6SM SCT040 SCT250
  FM130200 VRB03KT P6SM SCT250


METAR
KTPA 120153Z 34006KT 10SM FEW120 27/22 A3007 RMK AO2 SLP181 T02720217 $
KTPA 120053Z 34007KT 10SM BKN120 28/22 A3005 RMK AO2 SLP175 T02780217 $
KTPA 112353Z 33009KT 10SM BKN120 BKN250 28/21 A3004 RMK AO2 SLP170 CB DSNT SE T02830211 10328 20283 53002 $

Radar Display
Forecast Discussion